createdAt,value
2017-10-06T00:00:49.866Z,969
2017-10-06T00:01:49.861Z,968.95
2017-10-06T00:02:49.855Z,968.96
2017-10-06T00:03:49.949Z,968.96
2017-10-06T00:04:49.846Z,968.91
2017-10-06T00:05:49.838Z,968.9
2017-10-06T00:06:49.832Z,968.86
2017-10-06T00:07:49.825Z,968.81
2017-10-06T00:08:49.820Z,968.75
2017-10-06T00:09:49.815Z,968.71
2017-10-06T00:10:49.958Z,968.75
2017-10-06T00:11:49.806Z,968.7
2017-10-06T00:12:49.797Z,968.71
2017-10-06T00:13:49.792Z,968.72
2017-10-06T00:14:49.786Z,968.7
2017-10-06T00:15:49.929Z,968.65
2017-10-06T00:16:49.775Z,968.59
2017-10-06T00:17:49.773Z,968.56
2017-10-06T00:18:49.763Z,968.55
2017-10-06T00:19:49.757Z,968.58
2017-10-06T00:20:49.750Z,968.61
2017-10-06T00:21:49.745Z,968.63
2017-10-06T00:22:49.740Z,968.67
2017-10-06T00:23:49.734Z,968.81
2017-10-06T00:24:49.729Z,968.79
2017-10-06T00:25:49.723Z,968.83
2017-10-06T00:26:49.717Z,968.83
2017-10-06T00:27:49.710Z,968.8
2017-10-06T00:28:49.706Z,968.82
2017-10-06T00:29:49.698Z,968.81
2017-10-06T00:30:49.694Z,968.84
2017-10-06T00:31:49.689Z,968.86
2017-10-06T00:32:49.832Z,968.95
2017-10-06T00:33:49.675Z,968.99
2017-10-06T00:34:49.672Z,969.07
2017-10-06T00:35:49.665Z,969.09
2017-10-06T00:36:49.659Z,969.11
2017-10-06T00:37:49.752Z,969.13
2017-10-06T00:38:49.647Z,969.08
2017-10-06T00:39:49.642Z,969.04
2017-10-06T00:40:49.635Z,968.97
2017-10-06T00:41:49.630Z,968.93
2017-10-06T00:42:49.624Z,968.99
2017-10-06T00:43:49.622Z,968.95
2017-10-06T00:44:49.612Z,968.97
2017-10-06T00:45:49.606Z,968.99
2017-10-06T00:46:49.601Z,969.01
2017-10-06T00:47:49.595Z,969
2017-10-06T00:48:49.689Z,968.99
2017-10-06T00:49:49.583Z,968.97
2017-10-06T00:50:49.678Z,968.97
2017-10-06T00:51:49.572Z,969
2017-10-06T00:52:49.568Z,968.95
2017-10-06T00:53:49.560Z,968.92
2017-10-06T00:54:49.553Z,968.95
2017-10-06T00:55:49.548Z,968.85
2017-10-06T00:56:49.543Z,968.69
2017-10-06T00:57:49.538Z,968.54
2017-10-06T00:58:49.681Z,968.51
2017-10-06T00:59:49.526Z,968.58
2017-10-06T01:00:49.519Z,968.68
2017-10-06T01:01:49.519Z,968.69
2017-10-06T01:02:49.508Z,968.7
2017-10-06T01:03:49.652Z,968.7
2017-10-06T01:04:49.498Z,968.7
2017-10-06T01:05:49.492Z,968.74
2017-10-06T01:06:49.485Z,968.77
2017-10-06T01:07:49.480Z,968.75
2017-10-06T01:08:49.475Z,968.76
2017-10-06T01:09:49.471Z,968.78
2017-10-06T01:10:49.463Z,968.84
2017-10-06T01:11:49.456Z,968.85
2017-10-06T01:12:49.451Z,968.86
2017-10-06T01:13:49.446Z,968.84
2017-10-06T01:14:49.538Z,968.85
2017-10-06T01:15:49.434Z,968.88
2017-10-06T01:16:49.428Z,968.88
2017-10-06T01:17:49.420Z,968.88
2017-10-06T01:18:49.515Z,968.92
2017-10-06T01:19:49.413Z,968.92
2017-10-06T01:20:49.404Z,968.93
2017-10-06T01:21:49.399Z,968.95
2017-10-06T01:22:49.393Z,968.94
2017-10-06T01:23:49.387Z,968.95
2017-10-06T01:24:49.380Z,968.94
2017-10-06T01:25:49.374Z,968.97
2017-10-06T01:26:49.370Z,968.96
2017-10-06T01:27:49.363Z,968.97
2017-10-06T01:28:49.357Z,968.98
2017-10-06T01:29:49.351Z,968.97
2017-10-06T01:30:49.347Z,968.98
2017-10-06T01:31:49.339Z,969
2017-10-06T01:32:49.335Z,969.01
2017-10-06T01:33:49.329Z,968.98
2017-10-06T01:34:49.322Z,968.98
2017-10-06T01:35:49.318Z,968.94
2017-10-06T01:36:49.311Z,968.9
2017-10-06T01:37:49.306Z,968.81
2017-10-06T01:38:49.298Z,968.79
2017-10-06T01:39:49.294Z,968.81
2017-10-06T01:40:49.289Z,968.81
2017-10-06T01:41:49.281Z,968.8
2017-10-06T01:42:49.277Z,968.8
2017-10-06T01:43:49.270Z,968.83
2017-10-06T01:44:49.264Z,968.84
2017-10-06T01:45:49.257Z,968.87
2017-10-06T01:46:49.252Z,968.85
2017-10-06T01:47:49.347Z,968.88
2017-10-06T01:48:49.241Z,968.83
2017-10-06T01:49:49.235Z,968.84
2017-10-06T01:50:49.228Z,968.83
2017-10-06T01:51:49.224Z,968.8
2017-10-06T01:52:49.217Z,968.73
2017-10-06T01:53:49.211Z,968.72
2017-10-06T01:54:49.206Z,968.63
2017-10-06T01:55:49.200Z,968.57
2017-10-06T01:56:49.196Z,968.53
2017-10-06T01:57:49.188Z,968.5
2017-10-06T01:58:49.183Z,968.54
2017-10-06T01:59:49.178Z,968.55
2017-10-06T02:00:49.170Z,968.63
2017-10-06T02:01:49.163Z,968.63
2017-10-06T02:02:49.158Z,968.72
2017-10-06T02:03:49.153Z,968.83
2017-10-06T02:04:49.147Z,968.86
2017-10-06T02:05:49.141Z,968.87
2017-10-06T02:06:49.235Z,968.87
2017-10-06T02:07:49.129Z,968.86
2017-10-06T02:08:49.123Z,968.91
2017-10-06T02:09:49.118Z,968.88
2017-10-06T02:10:49.213Z,968.93
2017-10-06T02:11:49.105Z,968.96
2017-10-06T02:12:49.101Z,968.95
2017-10-06T02:13:49.095Z,968.98
2017-10-06T02:14:49.088Z,968.94
2017-10-06T02:15:49.239Z,968.94
2017-10-06T02:16:49.077Z,968.96
2017-10-06T02:17:49.070Z,968.88
2017-10-06T02:18:49.064Z,968.85
2017-10-06T02:19:49.059Z,968.8
2017-10-06T02:20:49.053Z,968.8
2017-10-06T02:21:49.048Z,968.78
2017-10-06T02:22:49.041Z,968.77
2017-10-06T02:23:49.036Z,968.76
2017-10-06T02:24:49.030Z,968.78
2017-10-06T02:25:49.024Z,968.76
2017-10-06T02:26:49.018Z,968.76
2017-10-06T02:27:49.012Z,968.72
2017-10-06T02:28:49.006Z,968.72
2017-10-06T02:29:49.000Z,968.71
2017-10-06T02:30:48.994Z,968.69
2017-10-06T02:31:48.987Z,968.7
2017-10-06T02:32:48.983Z,968.71
2017-10-06T02:33:48.976Z,968.72
2017-10-06T02:34:48.971Z,968.71
2017-10-06T02:35:49.065Z,968.66
2017-10-06T02:36:49.060Z,968.66
2017-10-06T02:37:48.954Z,968.7
2017-10-06T02:38:48.947Z,968.69
2017-10-06T02:39:48.943Z,968.72
2017-10-06T02:40:48.936Z,968.71
2017-10-06T02:41:49.030Z,968.71
2017-10-06T02:42:48.925Z,968.74
2017-10-06T02:43:48.919Z,968.75
2017-10-06T02:44:48.911Z,968.74
2017-10-06T02:45:48.905Z,968.75
2017-10-06T02:46:48.899Z,968.76
2017-10-06T02:47:48.893Z,968.75
2017-10-06T02:48:48.888Z,968.74
2017-10-06T02:49:48.884Z,968.76
2017-10-06T02:50:48.877Z,968.75
2017-10-06T02:51:48.871Z,968.79
2017-10-06T02:52:48.864Z,968.78
2017-10-06T02:53:48.858Z,968.77
2017-10-06T02:54:48.853Z,968.77
2017-10-06T02:55:48.848Z,968.76
2017-10-06T02:56:48.841Z,968.73
2017-10-06T02:57:48.836Z,968.73
2017-10-06T02:58:48.829Z,968.68
2017-10-06T02:59:48.823Z,968.69
2017-10-06T03:00:48.817Z,968.65
2017-10-06T03:01:48.811Z,968.66
2017-10-06T03:02:48.805Z,968.7
2017-10-06T03:03:48.799Z,968.66
2017-10-06T03:04:48.793Z,968.65
2017-10-06T03:05:48.788Z,968.61
2017-10-06T03:06:48.882Z,968.64
2017-10-06T03:07:48.775Z,968.64
2017-10-06T03:08:48.770Z,968.66
2017-10-06T03:09:48.913Z,968.71
2017-10-06T03:10:48.758Z,968.69
2017-10-06T03:11:48.752Z,968.68
2017-10-06T03:12:48.746Z,968.67
2017-10-06T03:13:48.738Z,968.66
2017-10-06T03:14:48.735Z,968.68
2017-10-06T03:15:48.729Z,968.7
2017-10-06T03:16:48.723Z,968.67
2017-10-06T03:17:48.717Z,968.69
2017-10-06T03:18:48.709Z,968.69
2017-10-06T03:19:48.704Z,968.68
2017-10-06T03:20:48.698Z,968.7
2017-10-06T03:21:48.692Z,968.71
2017-10-06T03:22:48.686Z,968.7
2017-10-06T03:23:48.681Z,968.72
2017-10-06T03:24:48.674Z,968.72
2017-10-06T03:25:48.824Z,968.76
2017-10-06T03:26:48.663Z,968.71
2017-10-06T03:27:48.656Z,968.77
2017-10-06T03:28:48.650Z,968.74
2017-10-06T03:29:48.744Z,968.75
2017-10-06T03:30:48.639Z,968.74
2017-10-06T03:31:48.632Z,968.76
2017-10-06T03:32:48.630Z,968.74
2017-10-06T03:33:48.621Z,968.75
2017-10-06T03:34:48.615Z,968.79
2017-10-06T03:35:48.607Z,968.8
2017-10-06T03:36:48.602Z,968.78
2017-10-06T03:37:48.597Z,968.85
2017-10-06T03:38:48.590Z,968.85
2017-10-06T03:39:48.584Z,968.84
2017-10-06T03:40:48.578Z,968.83
2017-10-06T03:41:48.573Z,968.82
2017-10-06T03:42:48.567Z,968.85
2017-10-06T03:43:48.560Z,968.84
2017-10-06T03:44:48.554Z,968.85
2017-10-06T03:45:48.649Z,968.86
2017-10-06T03:46:48.543Z,968.88
2017-10-06T03:47:48.537Z,968.87
2017-10-06T03:48:48.532Z,968.87
2017-10-06T03:49:48.526Z,968.87
2017-10-06T03:50:48.521Z,968.9
2017-10-06T03:51:48.513Z,968.91
2017-10-06T03:52:48.508Z,968.98
2017-10-06T03:53:48.501Z,968.95
2017-10-06T03:54:48.495Z,968.96
2017-10-06T03:55:48.488Z,968.95
2017-10-06T03:56:48.584Z,968.96
2017-10-06T03:57:48.477Z,968.99
2017-10-06T03:58:48.471Z,968.99
2017-10-06T03:59:48.464Z,968.93
2017-10-06T04:00:48.460Z,968.97
2017-10-06T04:01:48.457Z,968.97
2017-10-06T04:02:48.447Z,968.97
2017-10-06T04:03:48.541Z,968.97
2017-10-06T04:04:48.435Z,968.94
2017-10-06T04:05:48.429Z,968.97
2017-10-06T04:06:48.423Z,968.93
2017-10-06T04:07:48.417Z,968.92
2017-10-06T04:08:48.410Z,968.9
2017-10-06T04:09:48.405Z,968.91
2017-10-06T04:10:48.399Z,968.88
2017-10-06T04:11:48.493Z,968.9
2017-10-06T04:12:48.387Z,968.9
2017-10-06T04:13:48.382Z,968.91
2017-10-06T04:14:48.476Z,968.92
2017-10-06T04:15:48.369Z,968.96
2017-10-06T04:16:48.463Z,968.99
2017-10-06T04:17:48.358Z,969.05
2017-10-06T04:18:48.358Z,969
2017-10-06T04:19:48.346Z,969.02
2017-10-06T04:20:48.340Z,969.03
2017-10-06T04:21:48.334Z,969.08
2017-10-06T04:22:48.327Z,969.04
2017-10-06T04:23:48.320Z,969.06
2017-10-06T04:24:48.316Z,969.11
2017-10-06T04:25:48.310Z,969.09
2017-10-06T04:26:48.302Z,969.13
2017-10-06T04:27:48.396Z,969.1
2017-10-06T04:28:48.291Z,969.13
2017-10-06T04:29:48.286Z,969.12
2017-10-06T04:30:48.278Z,969.19
2017-10-06T04:31:48.274Z,969.19
2017-10-06T04:32:48.368Z,969.23
2017-10-06T04:33:48.259Z,969.19
2017-10-06T04:34:48.253Z,969.24
2017-10-06T04:35:48.249Z,969.25
2017-10-06T04:36:48.244Z,969.27
2017-10-06T04:37:48.236Z,969.26
2017-10-06T04:38:48.230Z,969.33
2017-10-06T04:39:48.225Z,969.31
2017-10-06T04:40:48.219Z,969.36
2017-10-06T04:41:48.211Z,969.36
2017-10-06T04:42:48.206Z,969.36
2017-10-06T04:43:48.201Z,969.39
2017-10-06T04:44:48.192Z,969.4
2017-10-06T04:45:48.187Z,969.41
2017-10-06T04:46:48.183Z,969.36
2017-10-06T04:47:48.176Z,969.4
2017-10-06T04:48:48.273Z,969.39
2017-10-06T04:49:48.165Z,969.43
2017-10-06T04:50:48.159Z,969.45
2017-10-06T04:51:48.251Z,969.42
2017-10-06T04:52:48.153Z,969.45
2017-10-06T04:53:48.140Z,969.46
2017-10-06T04:54:48.134Z,969.46
2017-10-06T04:55:48.126Z,969.48
2017-10-06T04:56:48.121Z,969.49
2017-10-06T04:57:48.116Z,969.49
2017-10-06T04:58:48.109Z,969.47
2017-10-06T04:59:48.104Z,969.55
2017-10-06T05:00:48.098Z,969.53
2017-10-06T05:01:48.090Z,969.54
2017-10-06T05:02:48.185Z,969.53
2017-10-06T05:03:48.080Z,969.59
2017-10-06T05:04:48.172Z,969.58
2017-10-06T05:05:48.066Z,969.61
2017-10-06T05:06:48.060Z,969.57
2017-10-06T05:07:48.056Z,969.58
2017-10-06T05:08:48.049Z,969.63
2017-10-06T05:09:48.193Z,969.62
2017-10-06T05:10:48.036Z,969.63
2017-10-06T05:11:48.031Z,969.64
2017-10-06T05:12:48.025Z,969.61
2017-10-06T05:13:48.018Z,969.62
2017-10-06T05:14:48.011Z,969.61
2017-10-06T05:15:48.106Z,969.61
2017-10-06T05:16:48.000Z,969.61
2017-10-06T05:17:48.000Z,969.58
2017-10-06T05:18:47.987Z,969.59
2017-10-06T05:19:47.983Z,969.56
2017-10-06T05:20:47.976Z,969.58
2017-10-06T05:21:47.968Z,969.53
2017-10-06T05:22:47.964Z,969.52
2017-10-06T05:23:47.957Z,969.54
2017-10-06T05:24:47.977Z,969.53
2017-10-06T05:25:47.943Z,969.52
2017-10-06T05:26:47.939Z,969.5
2017-10-06T05:27:47.932Z,969.54
2017-10-06T05:28:47.926Z,969.56
2017-10-06T05:29:47.920Z,969.55
2017-10-06T05:30:47.915Z,969.54
2017-10-06T05:31:48.008Z,969.6
2017-10-06T05:32:47.902Z,969.63
2017-10-06T05:33:47.895Z,969.66
2017-10-06T05:34:47.890Z,969.68
2017-10-06T05:35:47.884Z,969.66
2017-10-06T05:36:47.877Z,969.68
2017-10-06T05:37:47.872Z,969.7
2017-10-06T05:38:47.865Z,969.72
2017-10-06T05:39:47.959Z,969.73
2017-10-06T05:40:47.853Z,969.71
2017-10-06T05:41:47.847Z,969.71
2017-10-06T05:42:47.840Z,969.74
2017-10-06T05:43:47.833Z,969.77
2017-10-06T05:44:47.828Z,969.74
2017-10-06T05:45:47.823Z,969.77
2017-10-06T05:46:47.816Z,969.78
2017-10-06T05:47:47.911Z,969.8
2017-10-06T05:48:47.905Z,969.81
2017-10-06T05:49:47.799Z,969.8
2017-10-06T05:50:47.793Z,969.79
2017-10-06T05:51:47.786Z,969.84
2017-10-06T05:52:47.780Z,969.86
2017-10-06T05:53:47.774Z,969.86
2017-10-06T05:54:47.767Z,969.87
2017-10-06T05:55:47.862Z,969.88
2017-10-06T05:56:47.756Z,969.88
2017-10-06T05:57:47.749Z,969.89
2017-10-06T05:58:47.744Z,969.89
2017-10-06T05:59:47.736Z,969.9
2017-10-06T06:00:47.730Z,969.9
2017-10-06T06:01:47.722Z,969.93
2017-10-06T06:02:47.717Z,969.95
2017-10-06T06:03:47.711Z,969.93
2017-10-06T06:04:47.705Z,969.96
2017-10-06T06:05:47.698Z,969.96
2017-10-06T06:06:47.692Z,970
2017-10-06T06:07:47.685Z,970.01
2017-10-06T06:08:47.679Z,970.01
2017-10-06T06:09:47.774Z,970.02
2017-10-06T06:10:47.685Z,970.02
2017-10-06T06:11:47.662Z,970.04
2017-10-06T06:12:47.655Z,970.07
2017-10-06T06:13:47.652Z,970.07
2017-10-06T06:14:47.643Z,970.1
2017-10-06T06:15:47.737Z,970.13
2017-10-06T06:16:47.630Z,970.13
2017-10-06T06:17:47.625Z,970.15
2017-10-06T06:18:47.619Z,970.18
2017-10-06T06:19:47.612Z,970.19
2017-10-06T06:20:47.606Z,970.2
2017-10-06T06:21:47.600Z,970.16
2017-10-06T06:22:47.594Z,970.22
2017-10-06T06:23:47.587Z,970.14
2017-10-06T06:24:47.605Z,970.17
2017-10-06T06:25:47.575Z,970.16
2017-10-06T06:26:47.570Z,970.16
2017-10-06T06:27:47.562Z,970.17
2017-10-06T06:28:47.557Z,970.16
2017-10-06T06:29:47.551Z,970.15
2017-10-06T06:30:47.544Z,970.16
2017-10-06T06:31:47.538Z,970.19
2017-10-06T06:32:47.533Z,970.16
2017-10-06T06:33:47.526Z,970.22
2017-10-06T06:34:47.620Z,970.21
2017-10-06T06:35:47.615Z,970.23
2017-10-06T06:36:47.508Z,970.22
2017-10-06T06:37:47.503Z,970.24
2017-10-06T06:38:47.496Z,970.29
2017-10-06T06:39:47.491Z,970.29
2017-10-06T06:40:47.485Z,970.31
2017-10-06T06:41:47.478Z,970.31
2017-10-06T06:42:47.472Z,970.35
2017-10-06T06:43:47.466Z,970.34
2017-10-06T06:44:47.460Z,970.33
2017-10-06T06:45:47.553Z,970.29
2017-10-06T06:46:47.448Z,970.35
2017-10-06T06:47:47.442Z,970.32
2017-10-06T06:48:47.436Z,970.34
2017-10-06T06:49:47.428Z,970.33
2017-10-06T06:50:47.523Z,970.35
2017-10-06T06:51:47.418Z,970.35
2017-10-06T06:52:47.409Z,970.33
2017-10-06T06:53:47.403Z,970.33
2017-10-06T06:54:47.399Z,970.31
2017-10-06T06:55:47.492Z,970.28
2017-10-06T06:56:47.385Z,970.27
2017-10-06T06:57:47.380Z,970.28
2017-10-06T06:58:47.475Z,970.27
2017-10-06T06:59:47.367Z,970.3
2017-10-06T07:00:47.460Z,970.25
2017-10-06T07:01:47.355Z,970.29
2017-10-06T07:02:47.349Z,970.27
2017-10-06T07:03:47.343Z,970.28
2017-10-06T07:04:47.336Z,970.3
2017-10-06T07:05:47.332Z,970.31
2017-10-06T07:06:47.325Z,970.34
2017-10-06T07:07:47.318Z,970.34
2017-10-06T07:08:47.312Z,970.33
2017-10-06T07:09:47.307Z,970.31
2017-10-06T07:10:47.303Z,970.35
2017-10-06T07:11:47.294Z,970.34
2017-10-06T07:12:47.288Z,970.39
2017-10-06T07:13:47.383Z,970.4
2017-10-06T07:14:47.275Z,970.46
2017-10-06T07:15:47.269Z,970.46
2017-10-06T07:16:47.264Z,970.49
2017-10-06T07:17:47.258Z,970.48
2017-10-06T07:18:47.252Z,970.46
2017-10-06T07:19:47.245Z,970.42
2017-10-06T07:20:47.240Z,970.41
2017-10-06T07:21:47.234Z,970.37
2017-10-06T07:22:47.229Z,970.4
2017-10-06T07:23:47.222Z,970.41
2017-10-06T07:24:47.216Z,970.38
2017-10-06T07:25:47.210Z,970.36
2017-10-06T07:26:47.204Z,970.39
2017-10-06T07:27:47.198Z,970.41
2017-10-06T07:28:47.192Z,970.42
2017-10-06T07:29:47.185Z,970.43
2017-10-06T07:30:47.180Z,970.44
2017-10-06T07:31:47.174Z,970.44
2017-10-06T07:32:47.167Z,970.42
2017-10-06T07:33:47.161Z,970.41
2017-10-06T07:34:47.156Z,970.45
2017-10-06T07:35:47.249Z,970.48
2017-10-06T07:36:47.143Z,970.44
2017-10-06T07:37:47.237Z,970.48
2017-10-06T07:38:47.131Z,970.46
2017-10-06T07:39:47.125Z,970.48
2017-10-06T07:40:47.118Z,970.47
2017-10-06T07:41:47.113Z,970.47
2017-10-06T07:42:47.207Z,970.39
2017-10-06T07:43:47.100Z,970.39
2017-10-06T07:44:47.094Z,970.37
2017-10-06T07:45:47.089Z,970.29
2017-10-06T07:46:47.083Z,970.23
2017-10-06T07:47:47.078Z,970.23
2017-10-06T07:48:47.071Z,970.2
2017-10-06T07:49:47.064Z,970.2
2017-10-06T07:50:47.059Z,970.23
2017-10-06T07:51:47.052Z,970.25
2017-10-06T07:52:47.147Z,970.32
2017-10-06T07:53:47.041Z,970.34
2017-10-06T07:54:47.184Z,970.37
2017-10-06T07:55:47.029Z,970.35
2017-10-06T07:56:47.023Z,970.37
2017-10-06T07:57:47.017Z,970.42
2017-10-06T07:58:47.010Z,970.43
2017-10-06T07:59:47.005Z,970.44
2017-10-06T08:00:46.999Z,970.4
2017-10-06T08:01:46.994Z,970.42
2017-10-06T08:02:46.986Z,970.41
2017-10-06T08:03:46.991Z,970.35
2017-10-06T08:04:46.975Z,970.33
2017-10-06T08:05:46.969Z,970.34
2017-10-06T08:06:46.962Z,970.35
2017-10-06T08:07:46.956Z,970.3
2017-10-06T08:08:46.950Z,970.33
2017-10-06T08:09:46.945Z,970.29
2017-10-06T08:10:46.938Z,970.3
2017-10-06T08:11:46.933Z,970.23
2017-10-06T08:12:46.929Z,970.23
2017-10-06T08:13:46.920Z,970.22
2017-10-06T08:14:46.916Z,970.2
2017-10-06T08:15:46.909Z,970.2
2017-10-06T08:16:46.903Z,970.22
2017-10-06T08:17:46.897Z,970.23
2017-10-06T08:18:46.891Z,970.2
2017-10-06T08:19:46.885Z,970.24
2017-10-06T08:20:46.879Z,970.24
2017-10-06T08:21:46.873Z,970.26
2017-10-06T08:22:46.868Z,970.28
2017-10-06T08:23:46.962Z,970.29
2017-10-06T08:24:46.855Z,970.24
2017-10-06T08:25:46.850Z,970.24
2017-10-06T08:26:46.844Z,970.26
2017-10-06T08:27:46.837Z,970.23
2017-10-06T08:28:46.832Z,970.2
2017-10-06T08:29:46.827Z,970.21
2017-10-06T08:30:46.821Z,970.14
2017-10-06T08:31:46.814Z,970.22
2017-10-06T08:32:46.808Z,970.19
2017-10-06T08:33:46.802Z,970.22
2017-10-06T08:34:46.802Z,970.19
2017-10-06T08:35:46.790Z,970.14
2017-10-06T08:36:46.784Z,970.15
2017-10-06T08:37:46.779Z,970.19
2017-10-06T08:38:46.772Z,970.19
2017-10-06T08:39:46.767Z,970.16
2017-10-06T08:40:46.761Z,970.16
2017-10-06T08:41:46.755Z,970.22
2017-10-06T08:42:46.749Z,970.22
2017-10-06T08:43:46.743Z,970.22
2017-10-06T08:44:46.739Z,970.26
2017-10-06T08:45:46.732Z,970.25
2017-10-06T08:46:46.725Z,970.26
2017-10-06T08:47:46.720Z,970.26
2017-10-06T08:48:46.713Z,970.27
2017-10-06T08:49:46.806Z,970.29
2017-10-06T08:50:46.701Z,970.31
2017-10-06T08:51:46.696Z,970.29
2017-10-06T08:52:46.790Z,970.29
2017-10-06T08:53:46.683Z,970.29
2017-10-06T08:54:46.677Z,970.33
2017-10-06T08:55:46.672Z,970.35
2017-10-06T08:56:46.666Z,970.32
2017-10-06T08:57:46.661Z,970.38
2017-10-06T08:58:46.655Z,970.34
2017-10-06T08:59:46.650Z,970.36
2017-10-06T09:00:46.642Z,970.38
2017-10-06T09:01:46.637Z,970.42
2017-10-06T09:02:46.630Z,970.39
2017-10-06T09:03:46.625Z,970.39
2017-10-06T09:04:46.619Z,970.4
2017-10-06T09:05:46.613Z,970.4
2017-10-06T09:06:46.607Z,970.42
2017-10-06T09:07:46.600Z,970.41
2017-10-06T09:08:46.745Z,970.39
2017-10-06T09:09:46.588Z,970.45
2017-10-06T09:10:46.584Z,970.42
2017-10-06T09:11:46.576Z,970.47
2017-10-06T09:12:46.570Z,970.47
2017-10-06T09:13:46.565Z,970.46
2017-10-06T09:14:46.659Z,970.45
2017-10-06T09:15:46.552Z,970.5
2017-10-06T09:16:46.547Z,970.5
2017-10-06T09:17:46.540Z,970.49
2017-10-06T09:18:46.534Z,970.48
2017-10-06T09:19:46.628Z,970.5
2017-10-06T09:20:46.523Z,970.53
2017-10-06T09:21:46.517Z,970.54
2017-10-06T09:22:46.660Z,970.55
2017-10-06T09:23:46.504Z,970.52
2017-10-06T09:24:46.500Z,970.59
2017-10-06T09:25:46.497Z,970.56
2017-10-06T09:26:46.486Z,970.56
2017-10-06T09:27:46.480Z,970.55
2017-10-06T09:28:46.474Z,970.58
2017-10-06T09:29:46.618Z,970.59
2017-10-06T09:30:46.461Z,970.57
2017-10-06T09:31:46.456Z,970.61
2017-10-06T09:32:46.451Z,970.62
2017-10-06T09:33:46.544Z,970.61
2017-10-06T09:34:46.438Z,970.63
2017-10-06T09:35:46.432Z,970.62
2017-10-06T09:36:46.427Z,970.67
2017-10-06T09:37:46.419Z,970.68
2017-10-06T09:38:46.514Z,970.7
2017-10-06T09:39:46.408Z,970.69
2017-10-06T09:40:46.402Z,970.72
2017-10-06T09:41:46.396Z,970.74
2017-10-06T09:42:46.409Z,970.75
2017-10-06T09:43:46.383Z,970.8
2017-10-06T09:44:46.376Z,970.8
2017-10-06T09:45:46.521Z,970.84
2017-10-06T09:46:46.365Z,970.84
2017-10-06T09:47:46.359Z,970.84
2017-10-06T09:48:46.352Z,970.86
2017-10-06T09:49:46.446Z,970.9
2017-10-06T09:50:46.340Z,970.93
2017-10-06T09:51:46.333Z,970.92
2017-10-06T09:52:46.428Z,970.91
2017-10-06T09:53:46.422Z,970.94
2017-10-06T09:54:46.316Z,970.95
2017-10-06T09:55:46.309Z,970.97
2017-10-06T09:56:46.303Z,970.97
2017-10-06T09:57:46.297Z,971
2017-10-06T09:58:46.392Z,970.98
2017-10-06T09:59:46.284Z,971
2017-10-06T10:00:46.278Z,971.06
2017-10-06T10:01:46.273Z,971.03
2017-10-06T10:02:46.266Z,971.05
2017-10-06T10:03:46.260Z,971.08
2017-10-06T10:04:46.254Z,971.08
2017-10-06T10:05:46.248Z,971.15
2017-10-06T10:06:46.242Z,971.17
2017-10-06T10:07:46.235Z,971.24
2017-10-06T10:08:46.235Z,971.18
2017-10-06T10:09:46.223Z,971.21
2017-10-06T10:10:46.216Z,971.22
2017-10-06T10:11:46.209Z,971.2
2017-10-06T10:12:46.204Z,971.22
2017-10-06T10:13:46.197Z,971.24
2017-10-06T10:14:46.191Z,971.26
2017-10-06T10:15:46.185Z,971.24
2017-10-06T10:16:46.179Z,971.21
2017-10-06T10:17:46.172Z,971.24
2017-10-06T10:18:46.166Z,971.23
2017-10-06T10:19:46.160Z,971.26
2017-10-06T10:20:46.155Z,971.24
2017-10-06T10:21:46.147Z,971.2
2017-10-06T10:22:46.141Z,971.21
2017-10-06T10:23:46.135Z,971.21
2017-10-06T10:24:46.128Z,971.24
2017-10-06T10:25:46.122Z,971.24
2017-10-06T10:26:46.117Z,971.29
2017-10-06T10:27:46.110Z,971.28
2017-10-06T10:28:46.103Z,971.3
2017-10-06T10:29:46.098Z,971.27
2017-10-06T10:30:46.092Z,971.26
2017-10-06T10:31:46.085Z,971.26
2017-10-06T10:32:46.079Z,971.26
2017-10-06T10:33:46.073Z,971.28
2017-10-06T10:34:46.067Z,971.3
2017-10-06T10:35:46.061Z,971.29
2017-10-06T10:36:46.054Z,971.29
2017-10-06T10:37:46.048Z,971.32
2017-10-06T10:38:46.042Z,971.36
2017-10-06T10:39:46.035Z,971.32
2017-10-06T10:40:46.029Z,971.3
2017-10-06T10:41:46.023Z,971.36
2017-10-06T10:42:46.017Z,971.32
2017-10-06T10:43:46.011Z,971.31
2017-10-06T10:44:46.005Z,971.31
2017-10-06T10:45:45.998Z,971.35
2017-10-06T10:46:46.092Z,971.36
2017-10-06T10:47:45.986Z,971.37
2017-10-06T10:48:45.980Z,971.37
2017-10-06T10:49:45.973Z,971.4
2017-10-06T10:50:45.966Z,971.38
2017-10-06T10:51:45.961Z,971.32
2017-10-06T10:52:45.955Z,971.33
2017-10-06T10:53:45.949Z,971.33
2017-10-06T10:54:45.943Z,971.33
2017-10-06T10:55:45.935Z,971.26
2017-10-06T10:56:45.934Z,971.24
2017-10-06T10:57:45.923Z,971.26
2017-10-06T10:58:45.918Z,971.22
2017-10-06T10:59:45.911Z,971.2
2017-10-06T11:00:45.905Z,971.24
2017-10-06T11:01:45.902Z,971.21
2017-10-06T11:02:45.892Z,971.2
2017-10-06T11:03:45.986Z,971.18
2017-10-06T11:04:46.029Z,971.18
2017-10-06T11:05:45.872Z,971.1
2017-10-06T11:06:45.867Z,971.11
2017-10-06T11:07:45.861Z,971.08
2017-10-06T11:08:45.853Z,971.02
2017-10-06T11:09:45.847Z,971.06
2017-10-06T11:10:45.941Z,971.04
2017-10-06T11:11:45.836Z,971.02
2017-10-06T11:12:45.829Z,971.03
2017-10-06T11:13:45.823Z,971.01
2017-10-06T11:14:45.816Z,971.01
2017-10-06T11:15:45.810Z,970.96
2017-10-06T11:16:45.804Z,970.98
2017-10-06T11:17:45.797Z,970.98
2017-10-06T11:18:45.792Z,970.99
2017-10-06T11:19:45.885Z,970.99
2017-10-06T11:20:45.778Z,971.02
2017-10-06T11:21:45.773Z,971.02
2017-10-06T11:22:45.768Z,971.07
2017-10-06T11:23:45.760Z,971.04
2017-10-06T11:24:45.854Z,971.07
2017-10-06T11:25:45.748Z,971.05
2017-10-06T11:26:45.841Z,971.1
2017-10-06T11:27:45.835Z,971.08
2017-10-06T11:28:45.729Z,971.07
2017-10-06T11:29:45.723Z,971.1
2017-10-06T11:30:45.717Z,971.07
2017-10-06T11:31:45.714Z,971.1
2017-10-06T11:32:45.705Z,971.07
2017-10-06T11:33:45.699Z,971.03
2017-10-06T11:34:45.692Z,971.07
2017-10-06T11:35:45.685Z,971.04
2017-10-06T11:36:45.680Z,971
2017-10-06T11:37:45.673Z,970.99
2017-10-06T11:38:45.667Z,971.02
2017-10-06T11:39:45.661Z,971
2017-10-06T11:40:45.755Z,970.98
2017-10-06T11:41:45.649Z,970.95
2017-10-06T11:42:45.742Z,971
2017-10-06T11:43:45.636Z,970.99
2017-10-06T11:44:45.630Z,970.99
2017-10-06T11:45:45.725Z,970.97
2017-10-06T11:46:45.617Z,970.99
2017-10-06T11:47:45.612Z,971.01
2017-10-06T11:48:45.605Z,970.98
2017-10-06T11:49:45.599Z,970.95
2017-10-06T11:50:45.593Z,970.97
2017-10-06T11:51:45.687Z,970.97
2017-10-06T11:52:45.580Z,970.97
2017-10-06T11:53:45.574Z,970.96
2017-10-06T11:54:45.568Z,970.95
2017-10-06T11:55:45.563Z,970.94
2017-10-06T11:56:45.556Z,970.96
2017-10-06T11:57:45.554Z,970.92
2017-10-06T11:58:45.544Z,970.93
2017-10-06T11:59:45.537Z,970.94
2017-10-06T12:00:45.531Z,970.94
2017-10-06T12:01:45.524Z,970.92
2017-10-06T12:02:45.519Z,970.93
2017-10-06T12:03:45.512Z,970.89
2017-10-06T12:04:45.506Z,970.92
2017-10-06T12:05:45.500Z,970.89
2017-10-06T12:06:45.494Z,970.93
2017-10-06T12:07:45.489Z,970.92
2017-10-06T12:08:45.483Z,970.93
2017-10-06T12:09:45.476Z,970.89
2017-10-06T12:10:45.570Z,970.91
2017-10-06T12:11:45.464Z,970.85
2017-10-06T12:12:45.458Z,970.88
2017-10-06T12:13:45.454Z,970.9
2017-10-06T12:14:45.557Z,970.89
2017-10-06T12:15:45.540Z,970.87
2017-10-06T12:16:45.434Z,970.91
2017-10-06T12:17:45.426Z,970.84
2017-10-06T12:18:45.421Z,970.88
2017-10-06T12:19:45.416Z,970.87
2017-10-06T12:20:45.410Z,970.87
2017-10-06T12:21:45.403Z,970.81
2017-10-06T12:22:45.396Z,970.85
2017-10-06T12:23:45.391Z,970.87
2017-10-06T12:24:45.385Z,970.8
2017-10-06T12:25:45.379Z,970.84
2017-10-06T12:26:45.372Z,970.83
2017-10-06T12:27:45.366Z,970.91
2017-10-06T12:28:45.359Z,970.91
2017-10-06T12:29:45.353Z,970.87
2017-10-06T12:30:45.351Z,970.88
2017-10-06T12:31:45.342Z,970.88